sensor_id;sensor_type;location;lat;lon;timestamp;temperature;humidity
20125;DHT22;10223;50.862;4.360;2024-03-23T00:53:45;9.10;99.90
20125;DHT22;10223;50.862;4.360;2024-03-23T00:56:12;9.10;99.90
20125;DHT22;10223;50.862;4.360;2024-03-23T00:58:38;9.10;99.90
20125;DHT22;10223;50.862;4.360;2024-03-23T01:01:05;9.20;99.90
20125;DHT22;10223;50.862;4.360;2024-03-23T01:03:31;8.90;99.90
20125;DHT22;10223;50.862;4.360;2024-03-23T01:05:59;8.90;99.90
20125;DHT22;10223;50.862;4.360;2024-03-23T01:08:25;8.90;99.90
20125;DHT22;10223;50.862;4.360;2024-03-23T01:10:57;8.80;99.90
20125;DHT22;10223;50.862;4.360;2024-03-23T01:13:24;8.90;99.90
20125;DHT22;10223;50.862;4.360;2024-03-23T01:15:51;8.90;99.90
20125;DHT22;10223;50.862;4.360;2024-03-23T01:18:17;8.70;99.90
20125;DHT22;10223;50.862;4.360;2024-03-23T01:20:44;8.70;99.90
20125;DHT22;10223;50.862;4.360;2024-03-23T01:23:10;8.60;99.90
20125;DHT22;10223;50.862;4.360;2024-03-23T01:25:37;8.60;99.90
20125;DHT22;10223;50.862;4.360;2024-03-23T01:28:05;8.60;99.90
20125;DHT22;10223;50.862;4.360;2024-03-23T01:30:33;8.60;99.90
20125;DHT22;10223;50.862;4.360;2024-03-23T01:32:59;8.50;99.90
20125;DHT22;10223;50.862;4.360;2024-03-23T01:35:26;8.60;99.90
20125;DHT22;10223;50.862;4.360;2024-03-23T01:37:52;8.70;99.90
20125;DHT22;10223;50.862;4.360;2024-03-23T01:40:19;8.80;99.90
20125;DHT22;10223;50.862;4.360;2024-03-23T01:42:55;8.70;99.90
20125;DHT22;10223;50.862;4.360;2024-03-23T01:45:23;8.50;99.90
20125;DHT22;10223;50.862;4.360;2024-03-23T01:47:50;8.60;99.90
20125;DHT22;10223;50.862;4.360;2024-03-23T01:50:18;8.60;99.90
20125;DHT22;10223;50.862;4.360;2024-03-23T01:52:44;8.50;99.90
20125;DHT22;10223;50.862;4.360;2024-03-23T01:55:14;8.30;99.90
20125;DHT22;10223;50.862;4.360;2024-03-23T01:57:40;8.30;99.90
20125;DHT22;10223;50.862;4.360;2024-03-23T02:00:07;8.20;99.90
20125;DHT22;10223;50.862;4.360;2024-03-23T02:02:36;8.20;99.90
20125;DHT22;10223;50.862;4.360;2024-03-23T02:05:03;8.10;99.90
20125;DHT22;10223;50.862;4.360;2024-03-23T02:07:29;8.20;99.90
20125;DHT22;10223;50.862;4.360;2024-03-23T02:09:56;8.10;99.90
20125;DHT22;10223;50.862;4.360;2024-03-23T02:12:22;8.10;99.90
20125;DHT22;10223;50.862;4.360;2024-03-23T02:14:49;8.00;99.90
20125;DHT22;10223;50.862;4.360;2024-03-23T02:17:16;8.20;99.90
20125;DHT22;10223;50.862;4.360;2024-03-23T02:19:44;8.20;99.90
20125;DHT22;10223;50.862;4.360;2024-03-23T02:22:12;8.20;99.90
20125;DHT22;10223;50.862;4.360;2024-03-23T02:24:40;8.30;99.90
20125;DHT22;10223;50.862;4.360;2024-03-23T02:27:06;8.30;99.90
20125;DHT22;10223;50.862;4.360;2024-03-23T02:29:33;8.20;99.90
20125;DHT22;10223;50.862;4.360;2024-03-23T02:31:59;8.30;99.90
20125;DHT22;10223;50.862;4.360;2024-03-23T02:34:26;8.40;99.90
20125;DHT22;10223;50.862;4.360;2024-03-23T02:36:52;8.30;99.90
20125;DHT22;10223;50.862;4.360;2024-03-23T02:39:19;8.40;99.90
20125;DHT22;10223;50.862;4.360;2024-03-23T02:41:47;8.40;99.90
20125;DHT22;10223;50.862;4.360;2024-03-23T02:44:14;8.40;99.90
20125;DHT22;10223;50.862;4.360;2024-03-23T02:46:40;8.40;99.90
20125;DHT22;10223;50.862;4.360;2024-03-23T02:49:07;8.50;99.90
20125;DHT22;10223;50.862;4.360;2024-03-23T02:51:33;8.60;99.90
20125;DHT22;10223;50.862;4.360;2024-03-23T02:54:00;8.60;99.90
20125;DHT22;10223;50.862;4.360;2024-03-23T02:56:26;8.60;99.90
20125;DHT22;10223;50.862;4.360;2024-03-23T02:58:54;8.60;99.90
20125;DHT22;10223;50.862;4.360;2024-03-23T03:01:20;8.70;99.90
20125;DHT22;10223;50.862;4.360;2024-03-23T03:03:47;8.70;99.90
20125;DHT22;10223;50.862;4.360;2024-03-23T03:06:23;8.60;99.90
20125;DHT22;10223;50.862;4.360;2024-03-23T03:08:50;8.60;99.90
20125;DHT22;10223;50.862;4.360;2024-03-23T03:11:16;8.60;99.90
20125;DHT22;10223;50.862;4.360;2024-03-23T03:13:43;8.60;99.90
20125;DHT22;10223;50.862;4.360;2024-03-23T03:16:10;8.70;99.90
20125;DHT22;10223;50.862;4.360;2024-03-23T03:18:38;8.60;99.90
20125;DHT22;10223;50.862;4.360;2024-03-23T03:21:05;8.60;99.90
20125;DHT22;10223;50.862;4.360;2024-03-23T03:23:36;8.60;99.90
20125;DHT22;10223;50.862;4.360;2024-03-23T03:26:02;8.50;99.90
20125;DHT22;10223;50.862;4.360;2024-03-23T03:28:29;8.40;99.90
20125;DHT22;10223;50.862;4.360;2024-03-23T03:30:56;8.40;99.90
20125;DHT22;10223;50.862;4.360;2024-03-23T03:33:25;8.60;99.90
20125;DHT22;10223;50.862;4.360;2024-03-23T03:35:51;8.50;99.90
20125;DHT22;10223;50.862;4.360;2024-03-23T03:38:18;8.40;99.90
20125;DHT22;10223;50.862;4.360;2024-03-23T03:40:44;8.40;99.90
20125;DHT22;10223;50.862;4.360;2024-03-23T03:43:11;8.50;99.90
20125;DHT22;10223;50.862;4.360;2024-03-23T03:45:37;8.30;99.90
20125;DHT22;10223;50.862;4.360;2024-03-23T03:48:05;8.30;99.90
20125;DHT22;10223;50.862;4.360;2024-03-23T03:50:32;8.30;99.90
20125;DHT22;10223;50.862;4.360;2024-03-23T03:52:59;8.20;99.90
20125;DHT22;10223;50.862;4.360;2024-03-23T03:55:25;8.20;99.90
20125;DHT22;10223;50.862;4.360;2024-03-23T03:57:53;8.20;99.90
20125;DHT22;10223;50.862;4.360;2024-03-23T04:00:18;8.10;99.90
20125;DHT22;10223;50.862;4.360;2024-03-23T04:02:45;8.10;99.90
20125;DHT22;10223;50.862;4.360;2024-03-23T04:05:12;8.10;99.90
20125;DHT22;10223;50.862;4.360;2024-03-23T04:07:40;8.00;99.90
20125;DHT22;10223;50.862;4.360;2024-03-23T04:10:07;8.00;99.90
20125;DHT22;10223;50.862;4.360;2024-03-23T04:12:34;8.10;99.90
20125;DHT22;10223;50.862;4.360;2024-03-23T04:15:00;8.10;99.90
20125;DHT22;10223;50.862;4.360;2024-03-23T04:17:29;8.10;99.90
20125;DHT22;10223;50.862;4.360;2024-03-23T04:19:57;8.10;99.90
20125;DHT22;10223;50.862;4.360;2024-03-23T04:22:25;8.00;99.90
20125;DHT22;10223;50.862;4.360;2024-03-23T04:24:53;8.00;99.90
20125;DHT22;10223;50.862;4.360;2024-03-23T04:27:20;8.20;99.90
20125;DHT22;10223;50.862;4.360;2024-03-23T04:29:47;8.40;99.90
20125;DHT22;10223;50.862;4.360;2024-03-23T04:32:14;8.30;99.90
20125;DHT22;10223;50.862;4.360;2024-03-23T04:34:45;8.20;99.90
20125;DHT22;10223;50.862;4.360;2024-03-23T04:37:11;8.40;99.90
20125;DHT22;10223;50.862;4.360;2024-03-23T04:39:38;8.30;99.90
20125;DHT22;10223;50.862;4.360;2024-03-23T04:42:07;8.20;99.90
20125;DHT22;10223;50.862;4.360;2024-03-23T04:44:34;8.20;99.90
20125;DHT22;10223;50.862;4.360;2024-03-23T04:47:01;8.20;99.90
20125;DHT22;10223;50.862;4.360;2024-03-23T04:49:28;8.10;99.90
20125;DHT22;10223;50.862;4.360;2024-03-23T04:51:55;8.10;99.90
20125;DHT22;10223;50.862;4.360;2024-03-23T04:54:21;8.10;99.90
20125;DHT22;10223;50.862;4.360;2024-03-23T04:56:49;8.00;99.90
20125;DHT22;10223;50.862;4.360;2024-03-23T04:59:17;7.90;99.90
20125;DHT22;10223;50.862;4.360;2024-03-23T05:01:43;7.90;99.90
20125;DHT22;10223;50.862;4.360;2024-03-23T05:04:10;7.80;99.90
20125;DHT22;10223;50.862;4.360;2024-03-23T05:06:37;7.80;99.90
20125;DHT22;10223;50.862;4.360;2024-03-23T05:09:04;7.80;99.90
20125;DHT22;10223;50.862;4.360;2024-03-23T05:11:32;7.90;99.90
20125;DHT22;10223;50.862;4.360;2024-03-23T05:13:59;7.90;99.90
20125;DHT22;10223;50.862;4.360;2024-03-23T05:16:27;7.80;99.90
20125;DHT22;10223;50.862;4.360;2024-03-23T05:18:54;7.80;99.90
20125;DHT22;10223;50.862;4.360;2024-03-23T05:21:20;7.70;99.90
20125;DHT22;10223;50.862;4.360;2024-03-23T05:23:47;7.70;99.90
20125;DHT22;10223;50.862;4.360;2024-03-23T05:26:13;7.70;99.90
20125;DHT22;10223;50.862;4.360;2024-03-23T05:28:40;7.60;99.90
20125;DHT22;10223;50.862;4.360;2024-03-23T05:31:06;7.60;99.90
20125;DHT22;10223;50.862;4.360;2024-03-23T05:33:36;7.60;99.90
20125;DHT22;10223;50.862;4.360;2024-03-23T05:36:04;7.50;99.90
20125;DHT22;10223;50.862;4.360;2024-03-23T05:38:34;7.50;99.90
20125;DHT22;10223;50.862;4.360;2024-03-23T05:41:00;7.60;99.90
20125;DHT22;10223;50.862;4.360;2024-03-23T05:43:27;7.60;99.90
20125;DHT22;10223;50.862;4.360;2024-03-23T05:45:54;7.70;99.90
20125;DHT22;10223;50.862;4.360;2024-03-23T05:48:22;7.70;99.90
20125;DHT22;10223;50.862;4.360;2024-03-23T05:50:50;7.70;99.90
20125;DHT22;10223;50.862;4.360;2024-03-23T05:53:17;7.60;99.90
20125;DHT22;10223;50.862;4.360;2024-03-23T05:55:43;7.60;99.90
20125;DHT22;10223;50.862;4.360;2024-03-23T05:58:10;7.60;99.90
20125;DHT22;10223;50.862;4.360;2024-03-23T06:00:36;7.60;99.90
20125;DHT22;10223;50.862;4.360;2024-03-23T06:03:03;7.60;99.90
20125;DHT22;10223;50.862;4.360;2024-03-23T06:05:29;7.60;99.90
20125;DHT22;10223;50.862;4.360;2024-03-23T06:07:58;7.50;99.90
20125;DHT22;10223;50.862;4.360;2024-03-23T06:10:24;7.50;99.90
20125;DHT22;10223;50.862;4.360;2024-03-23T06:12:50;7.50;99.90
20125;DHT22;10223;50.862;4.360;2024-03-23T06:15:18;7.40;99.90
20125;DHT22;10223;50.862;4.360;2024-03-23T06:17:47;7.40;99.90
20125;DHT22;10223;50.862;4.360;2024-03-23T06:20:13;7.50;99.90
20125;DHT22;10223;50.862;4.360;2024-03-23T06:22:41;7.60;99.90
20125;DHT22;10223;50.862;4.360;2024-03-23T06:25:08;7.60;99.90
20125;DHT22;10223;50.862;4.360;2024-03-23T06:27:37;7.50;99.90
20125;DHT22;10223;50.862;4.360;2024-03-23T06:30:05;7.60;99.90
20125;DHT22;10223;50.862;4.360;2024-03-23T06:32:32;7.60;99.90
20125;DHT22;10223;50.862;4.360;2024-03-23T06:34:58;7.50;99.90
20125;DHT22;10223;50.862;4.360;2024-03-23T06:37:26;7.50;99.90
20125;DHT22;10223;50.862;4.360;2024-03-23T06:39:52;7.50;99.90
20125;DHT22;10223;50.862;4.360;2024-03-23T06:42:20;7.50;99.90
20125;DHT22;10223;50.862;4.360;2024-03-23T06:44:46;7.50;99.90
20125;DHT22;10223;50.862;4.360;2024-03-23T06:47:13;7.50;99.90
20125;DHT22;10223;50.862;4.360;2024-03-23T06:49:39;7.60;99.90
20125;DHT22;10223;50.862;4.360;2024-03-23T06:52:06;7.50;99.90
20125;DHT22;10223;50.862;4.360;2024-03-23T06:54:32;7.40;99.90
20125;DHT22;10223;50.862;4.360;2024-03-23T06:56:58;7.40;99.90
20125;DHT22;10223;50.862;4.360;2024-03-23T06:59:26;7.60;99.90
20125;DHT22;10223;50.862;4.360;2024-03-23T07:01:53;7.40;99.90
20125;DHT22;10223;50.862;4.360;2024-03-23T07:04:19;7.60;99.90
20125;DHT22;10223;50.862;4.360;2024-03-23T07:06:46;7.70;99.90
20125;DHT22;10223;50.862;4.360;2024-03-23T07:09:12;7.50;99.90
20125;DHT22;10223;50.862;4.360;2024-03-23T07:11:39;7.50;99.90
20125;DHT22;10223;50.862;4.360;2024-03-23T07:14:04;7.20;99.90
20125;DHT22;10223;50.862;4.360;2024-03-23T07:16:33;7.00;99.90
20125;DHT22;10223;50.862;4.360;2024-03-23T07:18:59;6.80;99.90
20125;DHT22;10223;50.862;4.360;2024-03-23T07:21:26;6.90;99.90
20125;DHT22;10223;50.862;4.360;2024-03-23T07:23:51;6.90;99.90
20125;DHT22;10223;50.862;4.360;2024-03-23T07:26:18;6.90;99.90
20125;DHT22;10223;50.862;4.360;2024-03-23T07:28:44;6.90;99.90
20125;DHT22;10223;50.862;4.360;2024-03-23T07:31:13;7.00;99.90
20125;DHT22;10223;50.862;4.360;2024-03-23T07:33:44;6.90;99.90
20125;DHT22;10223;50.862;4.360;2024-03-23T07:36:11;7.60;99.90
20125;DHT22;10223;50.862;4.360;2024-03-23T07:38:39;7.70;99.90
20125;DHT22;10223;50.862;4.360;2024-03-23T07:41:07;8.10;99.90
20125;DHT22;10223;50.862;4.360;2024-03-23T07:43:33;8.40;99.90
20125;DHT22;10223;50.862;4.360;2024-03-23T07:46:00;8.70;99.90
20125;DHT22;10223;50.862;4.360;2024-03-23T07:48:27;9.10;99.90
20125;DHT22;10223;50.862;4.360;2024-03-23T07:51:01;9.00;99.90
20125;DHT22;10223;50.862;4.360;2024-03-23T07:53:27;9.30;99.90
20125;DHT22;10223;50.862;4.360;2024-03-23T07:55:58;9.10;99.90
20125;DHT22;10223;50.862;4.360;2024-03-23T07:58:25;9.00;99.90
20125;DHT22;10223;50.862;4.360;2024-03-23T08:00:52;8.90;99.90
20125;DHT22;10223;50.862;4.360;2024-03-23T08:03:19;9.00;99.90
20125;DHT22;10223;50.862;4.360;2024-03-23T08:05:46;9.30;99.90
20125;DHT22;10223;50.862;4.360;2024-03-23T08:08:16;9.40;99.90
20125;DHT22;10223;50.862;4.360;2024-03-23T08:10:49;9.10;99.90
20125;DHT22;10223;50.862;4.360;2024-03-23T08:13:16;8.90;99.90
20125;DHT22;10223;50.862;4.360;2024-03-23T08:15:42;8.60;99.90
20125;DHT22;10223;50.862;4.360;2024-03-23T08:18:10;8.40;99.90
20125;DHT22;10223;50.862;4.360;2024-03-23T08:20:36;8.60;99.90
20125;DHT22;10223;50.862;4.360;2024-03-23T08:23:04;8.90;99.90
20125;DHT22;10223;50.862;4.360;2024-03-23T08:25:33;9.00;99.90
20125;DHT22;10223;50.862;4.360;2024-03-23T08:27:59;8.70;99.90
20125;DHT22;10223;50.862;4.360;2024-03-23T08:30:26;8.60;99.90
20125;DHT22;10223;50.862;4.360;2024-03-23T08:32:52;8.60;99.90
20125;DHT22;10223;50.862;4.360;2024-03-23T08:35:19;8.60;99.90
20125;DHT22;10223;50.862;4.360;2024-03-23T08:37:45;8.60;99.90
20125;DHT22;10223;50.862;4.360;2024-03-23T08:40:12;8.40;99.90
20125;DHT22;10223;50.862;4.360;2024-03-23T08:42:39;8.40;99.90
20125;DHT22;10223;50.862;4.360;2024-03-23T08:45:09;8.20;99.90
20125;DHT22;10223;50.862;4.360;2024-03-23T08:47:35;8.40;99.90
20125;DHT22;10223;50.862;4.360;2024-03-23T08:50:02;8.40;99.90
20125;DHT22;10223;50.862;4.360;2024-03-23T08:52:31;8.60;99.90
20125;DHT22;10223;50.862;4.360;2024-03-23T08:54:57;8.70;99.90
20125;DHT22;10223;50.862;4.360;2024-03-23T08:57:24;8.80;99.90
20125;DHT22;10223;50.862;4.360;2024-03-23T08:59:51;9.40;99.90
20125;DHT22;10223;50.862;4.360;2024-03-23T09:02:18;9.70;99.90
20125;DHT22;10223;50.862;4.360;2024-03-23T09:04:44;9.60;99.90
20125;DHT22;10223;50.862;4.360;2024-03-23T09:07:11;9.70;99.90
20125;DHT22;10223;50.862;4.360;2024-03-23T09:09:38;9.80;99.90
20125;DHT22;10223;50.862;4.360;2024-03-23T09:12:05;9.50;99.90
20125;DHT22;10223;50.862;4.360;2024-03-23T09:14:32;9.30;99.90
20125;DHT22;10223;50.862;4.360;2024-03-23T09:17:00;9.30;99.90
20125;DHT22;10223;50.862;4.360;2024-03-23T09:19:28;9.30;99.90
20125;DHT22;10223;50.862;4.360;2024-03-23T09:21:54;9.00;99.90
20125;DHT22;10223;50.862;4.360;2024-03-23T09:24:20;8.90;99.90
20125;DHT22;10223;50.862;4.360;2024-03-23T09:26:47;9.00;99.90
20125;DHT22;10223;50.862;4.360;2024-03-23T09:29:13;9.50;99.90
20125;DHT22;10223;50.862;4.360;2024-03-23T09:31:40;9.80;99.90
20125;DHT22;10223;50.862;4.360;2024-03-23T09:34:08;9.70;99.90
20125;DHT22;10223;50.862;4.360;2024-03-23T09:36:35;9.80;99.90
20125;DHT22;10223;50.862;4.360;2024-03-23T09:39:01;10.30;99.90
20125;DHT22;10223;50.862;4.360;2024-03-23T09:41:29;10.50;99.90
20125;DHT22;10223;50.862;4.360;2024-03-23T09:43:55;10.60;99.90
20125;DHT22;10223;50.862;4.360;2024-03-23T09:46:22;10.30;99.90
20125;DHT22;10223;50.862;4.360;2024-03-23T09:48:48;10.00;99.90
20125;DHT22;10223;50.862;4.360;2024-03-23T09:51:17;10.10;99.90
20125;DHT22;10223;50.862;4.360;2024-03-23T09:53:43;10.00;99.90
20125;DHT22;10223;50.862;4.360;2024-03-23T09:56:10;10.00;99.90
20125;DHT22;10223;50.862;4.360;2024-03-23T09:58:39;9.80;99.90
20125;DHT22;10223;50.862;4.360;2024-03-23T10:01:07;9.70;99.90
20125;DHT22;10223;50.862;4.360;2024-03-23T10:03:42;9.70;99.90
20125;DHT22;10223;50.862;4.360;2024-03-23T10:06:11;9.50;99.90
20125;DHT22;10223;50.862;4.360;2024-03-23T10:08:39;9.30;99.90
20125;DHT22;10223;50.862;4.360;2024-03-23T10:11:16;9.40;99.90
20125;DHT22;10223;50.862;4.360;2024-03-23T10:13:42;9.80;99.90
20125;DHT22;10223;50.862;4.360;2024-03-23T10:16:22;10.20;99.90
20125;DHT22;10223;50.862;4.360;2024-03-23T10:18:50;10.30;99.90
20125;DHT22;10223;50.862;4.360;2024-03-23T10:21:20;10.10;99.90
20125;DHT22;10223;50.862;4.360;2024-03-23T10:23:47;9.90;99.90
20125;DHT22;10223;50.862;4.360;2024-03-23T10:26:17;9.70;99.90
20125;DHT22;10223;50.862;4.360;2024-03-23T10:29:04;9.80;99.90
20125;DHT22;10223;50.862;4.360;2024-03-23T10:31:34;9.80;99.90
20125;DHT22;10223;50.862;4.360;2024-03-23T10:34:02;9.60;99.90
20125;DHT22;10223;50.862;4.360;2024-03-23T10:36:30;9.30;99.90
20125;DHT22;10223;50.862;4.360;2024-03-23T10:38:57;9.20;99.90
20125;DHT22;10223;50.862;4.360;2024-03-23T10:41:26;9.80;99.90
20125;DHT22;10223;50.862;4.360;2024-03-23T10:43:53;10.10;99.90
20125;DHT22;10223;50.862;4.360;2024-03-23T10:46:25;10.50;99.90
20125;DHT22;10223;50.862;4.360;2024-03-23T10:48:51;10.60;99.90
20125;DHT22;10223;50.862;4.360;2024-03-23T10:51:18;10.60;99.90
20125;DHT22;10223;50.862;4.360;2024-03-23T10:53:48;10.70;99.90
20125;DHT22;10223;50.862;4.360;2024-03-23T10:56:17;11.30;99.90
20125;DHT22;10223;50.862;4.360;2024-03-23T10:58:47;11.40;99.90
20125;DHT22;10223;50.862;4.360;2024-03-23T11:01:14;11.40;99.90
20125;DHT22;10223;50.862;4.360;2024-03-23T11:03:47;11.70;99.90
20125;DHT22;10223;50.862;4.360;2024-03-23T11:06:34;12.00;99.90
20125;DHT22;10223;50.862;4.360;2024-03-23T11:09:02;11.70;99.90
20125;DHT22;10223;50.862;4.360;2024-03-23T11:11:29;11.80;99.90
20125;DHT22;10223;50.862;4.360;2024-03-23T11:13:59;11.20;99.90
20125;DHT22;10223;50.862;4.360;2024-03-23T11:16:26;11.20;99.90
20125;DHT22;10223;50.862;4.360;2024-03-23T11:19:35;11.20;99.90
20125;DHT22;10223;50.862;4.360;2024-03-23T11:22:02;11.50;99.90
20125;DHT22;10223;50.862;4.360;2024-03-23T11:24:30;11.70;99.90
20125;DHT22;10223;50.862;4.360;2024-03-23T11:26:58;11.60;99.90
20125;DHT22;10223;50.862;4.360;2024-03-23T11:29:30;11.90;99.90
20125;DHT22;10223;50.862;4.360;2024-03-23T11:31:56;12.20;99.90
20125;DHT22;10223;50.862;4.360;2024-03-23T11:34:23;12.80;99.90
20125;DHT22;10223;50.862;4.360;2024-03-23T11:36:50;13.00;99.90
20125;DHT22;10223;50.862;4.360;2024-03-23T11:39:29;13.10;99.90
20125;DHT22;10223;50.862;4.360;2024-03-23T11:41:58;12.70;99.90
20125;DHT22;10223;50.862;4.360;2024-03-23T11:44:26;12.10;99.90
20125;DHT22;10223;50.862;4.360;2024-03-23T11:46:52;12.00;99.90
20125;DHT22;10223;50.862;4.360;2024-03-23T11:49:23;11.90;99.90
20125;DHT22;10223;50.862;4.360;2024-03-23T11:51:53;12.10;99.90
20125;DHT22;10223;50.862;4.360;2024-03-23T11:54:21;12.10;99.90
20125;DHT22;10223;50.862;4.360;2024-03-23T11:56:59;12.30;99.90
20125;DHT22;10223;50.862;4.360;2024-03-23T11:59:36;12.50;99.90
20125;DHT22;10223;50.862;4.360;2024-03-23T12:02:09;12.10;99.90
20125;DHT22;10223;50.862;4.360;2024-03-23T12:04:37;12.20;99.90
20125;DHT22;10223;50.862;4.360;2024-03-23T12:07:13;12.60;99.90
20125;DHT22;10223;50.862;4.360;2024-03-23T12:09:40;12.10;99.90
20125;DHT22;10223;50.862;4.360;2024-03-23T12:12:13;11.60;99.90
20125;DHT22;10223;50.862;4.360;2024-03-23T12:14:42;11.50;99.90
20125;DHT22;10223;50.862;4.360;2024-03-23T12:17:12;11.80;99.90
20125;DHT22;10223;50.862;4.360;2024-03-23T12:19:40;11.80;99.90
20125;DHT22;10223;50.862;4.360;2024-03-23T12:22:07;11.20;99.90
20125;DHT22;10223;50.862;4.360;2024-03-23T12:24:34;10.70;99.90
20125;DHT22;10223;50.862;4.360;2024-03-23T12:27:04;10.10;99.90
20125;DHT22;10223;50.862;4.360;2024-03-23T12:29:33;9.80;99.90
20125;DHT22;10223;50.862;4.360;2024-03-23T12:32:00;9.70;99.90
20125;DHT22;10223;50.862;4.360;2024-03-23T12:34:28;10.10;99.90
20125;DHT22;10223;50.862;4.360;2024-03-23T12:36:56;10.70;99.90
20125;DHT22;10223;50.862;4.360;2024-03-23T12:39:23;11.40;99.90
20125;DHT22;10223;50.862;4.360;2024-03-23T12:41:49;11.80;99.90
20125;DHT22;10223;50.862;4.360;2024-03-23T12:44:18;12.20;99.90
20125;DHT22;10223;50.862;4.360;2024-03-23T12:46:45;12.90;99.90
20125;DHT22;10223;50.862;4.360;2024-03-23T12:49:12;13.80;99.90
20125;DHT22;10223;50.862;4.360;2024-03-23T12:51:39;14.40;99.90
20125;DHT22;10223;50.862;4.360;2024-03-23T12:54:06;13.80;99.90
20125;DHT22;10223;50.862;4.360;2024-03-23T12:56:32;13.70;99.90
20125;DHT22;10223;50.862;4.360;2024-03-23T12:59:01;13.80;99.90
20125;DHT22;10223;50.862;4.360;2024-03-23T13:01:27;14.30;99.90
20125;DHT22;10223;50.862;4.360;2024-03-23T13:03:56;15.10;99.90
20125;DHT22;10223;50.862;4.360;2024-03-23T13:06:22;15.10;99.90
20125;DHT22;10223;50.862;4.360;2024-03-23T13:08:49;14.40;99.90
20125;DHT22;10223;50.862;4.360;2024-03-23T13:11:18;13.50;99.90
20125;DHT22;10223;50.862;4.360;2024-03-23T13:13:51;13.30;99.90
20125;DHT22;10223;50.862;4.360;2024-03-23T13:16:17;13.20;99.90
20125;DHT22;10223;50.862;4.360;2024-03-23T13:18:44;13.70;99.90
20125;DHT22;10223;50.862;4.360;2024-03-23T13:21:11;13.80;99.90
20125;DHT22;10223;50.862;4.360;2024-03-23T13:23:38;13.60;99.90
20125;DHT22;10223;50.862;4.360;2024-03-23T13:26:07;12.90;99.90
20125;DHT22;10223;50.862;4.360;2024-03-23T13:28:35;12.70;99.90
20125;DHT22;10223;50.862;4.360;2024-03-23T13:31:01;12.90;99.90
20125;DHT22;10223;50.862;4.360;2024-03-23T13:33:29;13.70;99.90
20125;DHT22;10223;50.862;4.360;2024-03-23T13:35:55;13.80;99.90
20125;DHT22;10223;50.862;4.360;2024-03-23T13:38:27;13.60;99.90
20125;DHT22;10223;50.862;4.360;2024-03-23T13:40:53;13.60;99.90
20125;DHT22;10223;50.862;4.360;2024-03-23T13:43:22;12.70;99.90
20125;DHT22;10223;50.862;4.360;2024-03-23T13:45:49;12.20;99.90
20125;DHT22;10223;50.862;4.360;2024-03-23T13:48:19;11.70;99.90
20125;DHT22;10223;50.862;4.360;2024-03-23T13:50:45;11.30;99.90
20125;DHT22;10223;50.862;4.360;2024-03-23T13:53:13;11.00;99.90
20125;DHT22;10223;50.862;4.360;2024-03-23T13:55:46;11.80;99.90
20125;DHT22;10223;50.862;4.360;2024-03-23T13:58:14;13.10;99.90
20125;DHT22;10223;50.862;4.360;2024-03-23T14:00:39;13.90;99.90
20125;DHT22;10223;50.862;4.360;2024-03-23T14:03:08;14.10;99.90
20125;DHT22;10223;50.862;4.360;2024-03-23T14:05:34;13.70;99.90
20125;DHT22;10223;50.862;4.360;2024-03-23T14:08:01;13.30;99.90
20125;DHT22;10223;50.862;4.360;2024-03-23T14:10:27;12.40;99.90
20125;DHT22;10223;50.862;4.360;2024-03-23T14:12:55;12.40;99.90
20125;DHT22;10223;50.862;4.360;2024-03-23T14:15:24;12.40;99.90
20125;DHT22;10223;50.862;4.360;2024-03-23T14:17:51;12.10;99.90
20125;DHT22;10223;50.862;4.360;2024-03-23T14:20:17;12.00;99.90
20125;DHT22;10223;50.862;4.360;2024-03-23T14:22:44;11.90;99.90
20125;DHT22;10223;50.862;4.360;2024-03-23T14:25:10;11.90;99.90
20125;DHT22;10223;50.862;4.360;2024-03-23T14:27:37;12.70;99.90
20125;DHT22;10223;50.862;4.360;2024-03-23T14:30:06;13.30;99.90
20125;DHT22;10223;50.862;4.360;2024-03-23T14:32:34;13.40;99.90
20125;DHT22;10223;50.862;4.360;2024-03-23T14:35:00;13.00;99.90
20125;DHT22;10223;50.862;4.360;2024-03-23T14:37:27;12.90;99.90
20125;DHT22;10223;50.862;4.360;2024-03-23T14:39:56;12.20;99.90
20125;DHT22;10223;50.862;4.360;2024-03-23T14:42:23;12.30;99.90
20125;DHT22;10223;50.862;4.360;2024-03-23T14:44:49;12.40;99.90
20125;DHT22;10223;50.862;4.360;2024-03-23T14:47:18;12.70;99.90
20125;DHT22;10223;50.862;4.360;2024-03-23T14:49:44;13.00;99.90
20125;DHT22;10223;50.862;4.360;2024-03-23T14:52:12;13.00;99.90
20125;DHT22;10223;50.862;4.360;2024-03-23T14:54:38;12.30;99.90
20125;DHT22;10223;50.862;4.360;2024-03-23T14:57:05;12.30;99.90
20125;DHT22;10223;50.862;4.360;2024-03-23T14:59:32;12.60;99.90
20125;DHT22;10223;50.862;4.360;2024-03-23T15:01:59;13.00;99.90
20125;DHT22;10223;50.862;4.360;2024-03-23T15:04:28;12.90;99.90
20125;DHT22;10223;50.862;4.360;2024-03-23T15:06:55;12.50;99.90
20125;DHT22;10223;50.862;4.360;2024-03-23T15:09:30;12.80;99.90
20125;DHT22;10223;50.862;4.360;2024-03-23T15:11:58;13.20;99.90
20125;DHT22;10223;50.862;4.360;2024-03-23T15:14:24;13.20;99.90
20125;DHT22;10223;50.862;4.360;2024-03-23T15:16:51;13.60;99.90
20125;DHT22;10223;50.862;4.360;2024-03-23T15:19:18;13.90;99.90
20125;DHT22;10223;50.862;4.360;2024-03-23T15:21:46;13.90;99.90
20125;DHT22;10223;50.862;4.360;2024-03-23T15:24:12;13.80;99.90
20125;DHT22;10223;50.862;4.360;2024-03-23T15:26:39;13.60;99.90
20125;DHT22;10223;50.862;4.360;2024-03-23T15:29:06;13.30;99.90
20125;DHT22;10223;50.862;4.360;2024-03-23T15:31:42;13.20;99.90
20125;DHT22;10223;50.862;4.360;2024-03-23T15:34:08;13.30;99.90
20125;DHT22;10223;50.862;4.360;2024-03-23T15:36:36;12.80;99.90
20125;DHT22;10223;50.862;4.360;2024-03-23T15:39:05;12.80;99.90
20125;DHT22;10223;50.862;4.360;2024-03-23T15:41:33;12.90;99.90
20125;DHT22;10223;50.862;4.360;2024-03-23T15:44:01;13.10;99.90
20125;DHT22;10223;50.862;4.360;2024-03-23T15:46:28;13.30;99.90
20125;DHT22;10223;50.862;4.360;2024-03-23T15:48:54;13.80;99.90
20125;DHT22;10223;50.862;4.360;2024-03-23T15:51:21;14.20;99.90
20125;DHT22;10223;50.862;4.360;2024-03-23T15:53:47;13.80;99.90
20125;DHT22;10223;50.862;4.360;2024-03-23T15:56:19;13.70;99.90
20125;DHT22;10223;50.862;4.360;2024-03-23T15:58:45;13.40;99.90
20125;DHT22;10223;50.862;4.360;2024-03-23T16:01:12;13.00;99.90
20125;DHT22;10223;50.862;4.360;2024-03-23T16:03:38;12.80;99.90
20125;DHT22;10223;50.862;4.360;2024-03-23T16:06:06;12.70;99.90
20125;DHT22;10223;50.862;4.360;2024-03-23T16:08:33;12.50;99.90
20125;DHT22;10223;50.862;4.360;2024-03-23T16:11:00;12.20;99.90
20125;DHT22;10223;50.862;4.360;2024-03-23T16:13:28;12.10;99.90
20125;DHT22;10223;50.862;4.360;2024-03-23T16:15:55;11.80;99.90
20125;DHT22;10223;50.862;4.360;2024-03-23T16:18:21;11.80;99.90
20125;DHT22;10223;50.862;4.360;2024-03-23T16:20:53;11.80;99.90
20125;DHT22;10223;50.862;4.360;2024-03-23T16:23:19;11.70;99.90
20125;DHT22;10223;50.862;4.360;2024-03-23T16:25:49;11.70;99.90
20125;DHT22;10223;50.862;4.360;2024-03-23T16:28:22;11.70;99.90
20125;DHT22;10223;50.862;4.360;2024-03-23T16:30:55;11.50;99.90
20125;DHT22;10223;50.862;4.360;2024-03-23T16:33:21;11.40;99.90
20125;DHT22;10223;50.862;4.360;2024-03-23T16:35:58;11.60;99.90